Wawasan Ruby — 3EVU7 — position and weather

sailwx.info

Track history (hours):
 
Tides and Currents Weather Stations Pressure Air Temp Water Temp Dewpoint Dewpoint Depression Visibility Wind Speed Wind Dir Waves Ship Positions

Wawasan Ruby

Last reported at 2017-Oct-18 23:33 UTC. Time now 2017-Oct-19 03:26 UTC.
Position N 31°43' E 121°08'.

Length 146 m; draft 6.4 m.

Type: Tanker. MMSI: 355619000.

Date/timePositionNaut miles runAvg speedWind from/ knotsBaromVisibWave heightAir tempDewpointWater temp
2017-Oct-18 23:33N 31°43' E 121°08'1 9.4
2017-Oct-18 23:27N 31°42' E 121°09'4 9.4
2017-Oct-18 23:00N 31°40' E 121°13'4 8.8
2017-Oct-18 22:31N 31°37' E 121°16'4 8.2
2017-Oct-18 22:00N 31°34' E 121°20'0 0.3
2017-Oct-18 21:30N 31°34' E 121°20'0 0.0
2017-Oct-18 21:00N 31°34' E 121°20'0 0.0
2017-Oct-18 20:30N 31°34' E 121°20'0 0.0
2017-Oct-18 20:00N 31°34' E 121°20'0 0.0
2017-Oct-18 19:30N 31°34' E 121°20'0 0.0
2017-Oct-18 19:00N 31°34' E 121°20'0 0.0
2017-Oct-18 18:30N 31°34' E 121°20'0 0.0
2017-Oct-18 18:00N 31°34' E 121°20'0 0.2
2017-Oct-18 17:30N 31°34' E 121°20'0 0.1
2017-Oct-18 17:00N 31°34' E 121°20'0 0.0
2017-Oct-18 16:30N 31°34' E 121°20'0 0.0
2017-Oct-18 16:00N 31°34' E 121°20'0 0.0
2017-Oct-18 15:30N 31°34' E 121°20'0 0.0
2017-Oct-18 15:00N 31°34' E 121°20'0 0.2
2017-Oct-18 14:00N 31°34' E 121°20'0 0.1
2017-Oct-18 13:30N 31°34' E 121°20'0 0.0
2017-Oct-18 12:57N 31°34' E 121°20'0 0.0
2017-Oct-18 12:30N 31°34' E 121°20'0 0.0
2017-Oct-18 12:00N 31°34' E 121°20'0 0.0
2017-Oct-18 11:30N 31°34' E 121°20'0 0.0
2017-Oct-18 11:00N 31°34' E 121°20'0 0.0
2017-Oct-18 10:30N 31°34' E 121°20'0 0.0
2017-Oct-18 10:00N 31°34' E 121°20'0 0.0
2017-Oct-18 09:30N 31°34' E 121°20'0 0.0
2017-Oct-18 09:00N 31°34' E 121°20'0 0.0
2017-Oct-18 08:30N 31°34' E 121°20'0 0.0
2017-Oct-18 08:00N 31°34' E 121°20'0 0.1
2017-Oct-18 07:30N 31°34' E 121°20'0 0.0
2017-Oct-18 06:57N 31°34' E 121°20'0 0.0
2017-Oct-18 06:30N 31°34' E 121°20'0 0.1
2017-Oct-18 06:00N 31°34' E 121°20'0 0.0
2017-Oct-18 05:30N 31°34' E 121°20'0 0.2
2017-Oct-18 05:00N 31°34' E 121°20'0 0.1
2017-Oct-18 04:30N 31°34' E 121°20'0 0.9
2017-Oct-18 04:00N 31°34' E 121°20'510.0
2017-Oct-18 03:30N 31°31' E 121°24'611.4
2017-Oct-18 03:00N 31°26' E 121°29'4 7.9
2017-Oct-18 02:30N 31°24' E 121°33'5 9.5
2017-Oct-18 02:00N 31°22' E 121°38'611.3
2017-Oct-18 01:30N 31°18' E 121°43'713.6
2017-Oct-18 01:00N 31°13' E 121°48'714.1
2017-Oct-18 00:30N 31°08' E 121°54'713.7
2017-Oct-18 00:00N 31°05' E 122°01'510.0
2017-Oct-17 23:30N 31°04' E 122°07'5 9.6
2017-Oct-17 23:00N 31°03' E 122°12'4 8.3
2017-Oct-17 22:30N 31°03' E 122°17'5 9.1
2017-Oct-17 22:00N 31°02' E 122°22'712.2
2017-Oct-17 21:27N 31°00' E 122°30'5 9.9
2017-Oct-17 20:57N 30°60' E 122°36'3 0.6
2017-Oct-17 15:56N 31°01' E 122°38'0 0.2
2017-Oct-17 15:20N 31°01' E 122°38'  
2017-Oct-10 04:28N 21°47' E 113°16'4 9.6
2017-Oct-10 04:00N 21°50' E 113°13'3 6.3
2017-Oct-10 03:30N 21°53' E 113°14'0 0.6
2017-Oct-10 02:59N 21°53' E 113°14'0 0.0
2017-Oct-10 02:29N 21°53' E 113°14'0 0.0
2017-Oct-10 01:59N 21°53' E 113°14'0 0.0
2017-Oct-10 01:29N 21°53' E 113°14'0 0.0
2017-Oct-10 00:59N 21°53' E 113°14'0 0.0
2017-Oct-10 00:29N 21°53' E 113°14'0 0.0
2017-Oct-09 23:59N 21°53' E 113°14'0 0.0
2017-Oct-09 23:29N 21°53' E 113°14'0 0.0
2017-Oct-09 22:59N 21°53' E 113°14'0 0.0
2017-Oct-09 22:29N 21°53' E 113°14'0 0.0
2017-Oct-09 21:56N 21°53' E 113°14'0 0.0
2017-Oct-09 21:29N 21°53' E 113°14'0 0.0
2017-Oct-09 20:59N 21°53' E 113°14'0 0.0
2017-Oct-09 20:29N 21°53' E 113°14'0 0.0
2017-Oct-09 19:59N 21°53' E 113°14'0 0.0
2017-Oct-09 19:29N 21°53' E 113°14'0 0.0
2017-Oct-09 18:56N 21°53' E 113°14'0 0.0
2017-Oct-09 18:29N 21°53' E 113°14'0 0.0
2017-Oct-09 17:59N 21°53' E 113°14'0 0.0
2017-Oct-09 17:29N 21°53' E 113°14'0 0.0
2017-Oct-09 16:59N 21°53' E 113°14'0 0.0
2017-Oct-09 16:29N 21°53' E 113°14'0 0.0
2017-Oct-09 15:59N 21°53' E 113°14'0 0.0
2017-Oct-09 15:29N 21°53' E 113°14'0 0.0
2017-Oct-09 14:59N 21°53' E 113°14'0 0.0
2017-Oct-09 14:29N 21°53' E 113°14'0 0.0
2017-Oct-09 13:59N 21°53' E 113°14'0 0.0
2017-Oct-09 13:23N 21°53' E 113°14'0 0.0
2017-Oct-09 12:59N 21°53' E 113°14'0 0.0
2017-Oct-09 12:26N 21°53' E 113°14'0 0.0
2017-Oct-09 11:59N 21°53' E 113°14'0 0.0
2017-Oct-09 11:29N 21°53' E 113°14'0 0.0
2017-Oct-09 10:59N 21°53' E 113°14'0 0.0
2017-Oct-09 10:29N 21°53' E 113°14'0 0.0
2017-Oct-09 09:59N 21°53' E 113°14'0 0.0
2017-Oct-09 09:29N 21°53' E 113°14'0 0.0
2017-Oct-09 08:59N 21°53' E 113°14'0 0.0
2017-Oct-09 08:29N 21°53' E 113°14'0 0.0
2017-Oct-09 07:59N 21°53' E 113°14'0 0.0
2017-Oct-09 07:29N 21°53' E 113°14'0 0.0
2017-Oct-09 06:59N 21°53' E 113°14'0 0.0
2017-Oct-09 06:29N 21°53' E 113°14'0 0.0
2017-Oct-09 05:59N 21°53' E 113°14'0 0.0
2017-Oct-09 05:26N 21°53' E 113°14'0 0.0
2017-Oct-09 04:59N 21°53' E 113°14'0 0.0
2017-Oct-09 04:29N 21°53' E 113°14'0 0.0
2017-Oct-09 03:59N 21°53' E 113°14'0 0.0
2017-Oct-09 03:30N 21°53' E 113°14'0 0.0
2017-Oct-09 03:00N 21°53' E 113°14'1 1.9
2017-Oct-09 02:30N 21°53' E 113°13'4 7.3
2017-Oct-09 02:00N 21°49' E 113°14'3 5.2
2017-Oct-09 01:30N 21°47' E 113°15'1 2.0
2017-Oct-09 01:00N 21°46' E 113°14'  
Track history (hours):
 
Tides and Currents Weather Stations Pressure Air Temp Water Temp Dewpoint Dewpoint Depression Visibility Wind Speed Wind Dir Waves Ship Positions

Wawasan Ruby

Last reported at 2017-Oct-18 23:33 UTC. Time now 2017-Oct-19 03:26 UTC.
Position N 31°43' E 121°08'.

Length 146 m; draft 6.4 m.

Type: Tanker. MMSI: 355619000.

Date/timePositionNaut miles runAvg speedWind from/ knotsBaromVisibWave heightAir tempDewpointWater temp
2017-Oct-18 23:33N 31°43' E 121°08'1 9.4
2017-Oct-18 23:27N 31°42' E 121°09'4 9.4
2017-Oct-18 23:00N 31°40' E 121°13'4 8.8
2017-Oct-18 22:31N 31°37' E 121°16'4 8.2
2017-Oct-18 22:00N 31°34' E 121°20'0 0.3
2017-Oct-18 21:30N 31°34' E 121°20'0 0.0
2017-Oct-18 21:00N 31°34' E 121°20'0 0.0
2017-Oct-18 20:30N 31°34' E 121°20'0 0.0
2017-Oct-18 20:00N 31°34' E 121°20'0 0.0
2017-Oct-18 19:30N 31°34' E 121°20'0 0.0
2017-Oct-18 19:00N 31°34' E 121°20'0 0.0
2017-Oct-18 18:30N 31°34' E 121°20'0 0.0
2017-Oct-18 18:00N 31°34' E 121°20'0 0.2
2017-Oct-18 17:30N 31°34' E 121°20'0 0.1
2017-Oct-18 17:00N 31°34' E 121°20'0 0.0
2017-Oct-18 16:30N 31°34' E 121°20'0 0.0
2017-Oct-18 16:00N 31°34' E 121°20'0 0.0
2017-Oct-18 15:30N 31°34' E 121°20'0 0.0
2017-Oct-18 15:00N 31°34' E 121°20'0 0.2
2017-Oct-18 14:00N 31°34' E 121°20'0 0.1
2017-Oct-18 13:30N 31°34' E 121°20'0 0.0
2017-Oct-18 12:57N 31°34' E 121°20'0 0.0
2017-Oct-18 12:30N 31°34' E 121°20'0 0.0
2017-Oct-18 12:00N 31°34' E 121°20'0 0.0
2017-Oct-18 11:30N 31°34' E 121°20'0 0.0
2017-Oct-18 11:00N 31°34' E 121°20'0 0.0
2017-Oct-18 10:30N 31°34' E 121°20'0 0.0
2017-Oct-18 10:00N 31°34' E 121°20'0 0.0
2017-Oct-18 09:30N 31°34' E 121°20'0 0.0
2017-Oct-18 09:00N 31°34' E 121°20'0 0.0
2017-Oct-18 08:30N 31°34' E 121°20'0 0.0
2017-Oct-18 08:00N 31°34' E 121°20'0 0.1
2017-Oct-18 07:30N 31°34' E 121°20'0 0.0
2017-Oct-18 06:57N 31°34' E 121°20'0 0.0
2017-Oct-18 06:30N 31°34' E 121°20'0 0.1
2017-Oct-18 06:00N 31°34' E 121°20'0 0.0
2017-Oct-18 05:30N 31°34' E 121°20'0 0.2
2017-Oct-18 05:00N 31°34' E 121°20'0 0.1
2017-Oct-18 04:30N 31°34' E 121°20'0 0.9
2017-Oct-18 04:00N 31°34' E 121°20'510.0
2017-Oct-18 03:30N 31°31' E 121°24'611.4
2017-Oct-18 03:00N 31°26' E 121°29'4 7.9
2017-Oct-18 02:30N 31°24' E 121°33'5 9.5
2017-Oct-18 02:00N 31°22' E 121°38'611.3
2017-Oct-18 01:30N 31°18' E 121°43'713.6
2017-Oct-18 01:00N 31°13' E 121°48'714.1
2017-Oct-18 00:30N 31°08' E 121°54'713.7
2017-Oct-18 00:00N 31°05' E 122°01'510.0
2017-Oct-17 23:30N 31°04' E 122°07'5 9.6
2017-Oct-17 23:00N 31°03' E 122°12'4 8.3
2017-Oct-17 22:30N 31°03' E 122°17'5 9.1
2017-Oct-17 22:00N 31°02' E 122°22'712.2
2017-Oct-17 21:27N 31°00' E 122°30'5 9.9
2017-Oct-17 20:57N 30°60' E 122°36'3 0.6
2017-Oct-17 15:56N 31°01' E 122°38'0 0.2
2017-Oct-17 15:20N 31°01' E 122°38'  
2017-Oct-10 04:28N 21°47' E 113°16'4 9.6
2017-Oct-10 04:00N 21°50' E 113°13'3 6.3
2017-Oct-10 03:30N 21°53' E 113°14'0 0.6
2017-Oct-10 02:59N 21°53' E 113°14'0 0.0
2017-Oct-10 02:29N 21°53' E 113°14'0 0.0
2017-Oct-10 01:59N 21°53' E 113°14'0 0.0
2017-Oct-10 01:29N 21°53' E 113°14'0 0.0
2017-Oct-10 00:59N 21°53' E 113°14'0 0.0
2017-Oct-10 00:29N 21°53' E 113°14'0 0.0
2017-Oct-09 23:59N 21°53' E 113°14'0 0.0
2017-Oct-09 23:29N 21°53' E 113°14'0 0.0
2017-Oct-09 22:59N 21°53' E 113°14'0 0.0
2017-Oct-09 22:29N 21°53' E 113°14'0 0.0
2017-Oct-09 21:56N 21°53' E 113°14'0 0.0
2017-Oct-09 21:29N 21°53' E 113°14'0 0.0
2017-Oct-09 20:59N 21°53' E 113°14'0 0.0
2017-Oct-09 20:29N 21°53' E 113°14'0 0.0
2017-Oct-09 19:59N 21°53' E 113°14'0 0.0
2017-Oct-09 19:29N 21°53' E 113°14'0 0.0
2017-Oct-09 18:56N 21°53' E 113°14'0 0.0
2017-Oct-09 18:29N 21°53' E 113°14'0 0.0
2017-Oct-09 17:59N 21°53' E 113°14'0 0.0
2017-Oct-09 17:29N 21°53' E 113°14'0 0.0
2017-Oct-09 16:59N 21°53' E 113°14'0 0.0
2017-Oct-09 16:29N 21°53' E 113°14'0 0.0
2017-Oct-09 15:59N 21°53' E 113°14'0 0.0
2017-Oct-09 15:29N 21°53' E 113°14'0 0.0
2017-Oct-09 14:59N 21°53' E 113°14'0 0.0
2017-Oct-09 14:29N 21°53' E 113°14'0 0.0
2017-Oct-09 13:59N 21°53' E 113°14'0 0.0
2017-Oct-09 13:23N 21°53' E 113°14'0 0.0
2017-Oct-09 12:59N 21°53' E 113°14'0 0.0
2017-Oct-09 12:26N 21°53' E 113°14'0 0.0
2017-Oct-09 11:59N 21°53' E 113°14'0 0.0
2017-Oct-09 11:29N 21°53' E 113°14'0 0.0
2017-Oct-09 10:59N 21°53' E 113°14'0 0.0
2017-Oct-09 10:29N 21°53' E 113°14'0 0.0
2017-Oct-09 09:59N 21°53' E 113°14'0 0.0
2017-Oct-09 09:29N 21°53' E 113°14'0 0.0
2017-Oct-09 08:59N 21°53' E 113°14'0 0.0
2017-Oct-09 08:29N 21°53' E 113°14'0 0.0
2017-Oct-09 07:59N 21°53' E 113°14'0 0.0
2017-Oct-09 07:29N 21°53' E 113°14'0 0.0
2017-Oct-09 06:59N 21°53' E 113°14'0 0.0
2017-Oct-09 06:29N 21°53' E 113°14'0 0.0
2017-Oct-09 05:59N 21°53' E 113°14'0 0.0
2017-Oct-09 05:26N 21°53' E 113°14'0 0.0
2017-Oct-09 04:59N 21°53' E 113°14'0 0.0
2017-Oct-09 04:29N 21°53' E 113°14'0 0.0
2017-Oct-09 03:59N 21°53' E 113°14'0 0.0
2017-Oct-09 03:30N 21°53' E 113°14'0 0.0
2017-Oct-09 03:00N 21°53' E 113°14'1 1.9
2017-Oct-09 02:30N 21°53' E 113°13'4 7.3
2017-Oct-09 02:00N 21°49' E 113°14'3 5.2
2017-Oct-09 01:30N 21°47' E 113°15'1 2.0
2017-Oct-09 01:00N 21°46' E 113°14'  

Dump ship's entire track history